Time;durP1;ratioP1;P1;durP2;ratioP2;P2;SDS_P1;SDS_P2;PMS_P1;PMS_P2;Temp;Humidity;BMP_temperature;BMP_pressure;BME280_temperature;BME280_humidity;BME280_pressure;Samples;Min_cycle;Max_cycle;Signal;HPM_P1;HPM_P2
2023/03/05 00:00:37;;;;;;;14.48;3.15;;;;;;;4.14;82.12;102231.09;4973112;28;20439;-74
2023/03/05 00:03:02;;;;;;;12.98;3.35;;;;;;;4.14;82.69;102237.22;4960527;28;20058;-74
2023/03/05 00:05:28;;;;;;;9.95;3.13;;;;;;;4.14;82.05;102239.84;4971362;28;20027;-74
2023/03/05 00:07:53;;;;;;;15.60;3.85;;;;;;;4.11;82.79;102241.50;4976146;28;20035;-74
2023/03/05 00:10:19;;;;;;;16.00;3.65;;;;;;;4.06;82.41;102237.00;4971582;28;20462;-74
2023/03/05 00:12:45;;;;;;;12.15;3.10;;;;;;;4.04;81.81;102229.94;4977066;28;20089;-73
2023/03/05 00:15:11;;;;;;;16.23;3.22;;;;;;;4.02;82.61;102229.91;4982801;28;20027;-73
2023/03/05 00:17:36;;;;;;;9.45;3.00;;;;;;;4.02;82.94;102229.00;4976647;28;20474;-75
2023/03/05 00:20:05;;;;;;;9.85;3.10;;;;;;;4.02;82.40;102229.00;4991248;28;20023;-72
2023/03/05 00:22:33;;;;;;;12.18;4.20;;;;;;;3.98;82.63;102224.53;4978499;28;20085;-73
2023/03/05 00:24:59;;;;;;;14.45;3.70;;;;;;;3.94;83.00;102215.69;4976854;28;20027;-73
2023/03/05 00:27:27;;;;;;;14.50;2.88;;;;;;;3.94;83.08;102220.06;4974955;28;20113;-73
2023/03/05 00:29:53;;;;;;;13.70;3.22;;;;;;;3.95;82.67;102217.47;4976504;28;20114;-73
2023/03/05 00:32:18;;;;;;;8.20;3.20;;;;;;;3.96;83.31;102219.25;4993718;28;20062;-73
2023/03/05 00:34:44;;;;;;;9.68;2.90;;;;;;;3.95;83.05;102211.34;4961063;28;20031;-73
2023/03/05 00:37:09;;;;;;;12.55;3.28;;;;;;;3.96;82.93;102214.00;4976474;28;20398;-73
2023/03/05 00:39:35;;;;;;;19.23;3.38;;;;;;;3.96;83.31;102218.38;4976559;28;20129;-74
2023/03/05 00:42:02;;;;;;;10.23;3.38;;;;;;;3.94;83.74;102209.59;4989242;28;20097;-73
2023/03/05 00:44:27;;;;;;;10.52;3.20;;;;;;;3.89;84.06;102206.81;4956070;28;20038;-73
2023/03/05 00:46:53;;;;;;;11.48;3.15;;;;;;;3.85;83.46;102203.22;4975272;28;20061;-73
2023/03/05 00:49:18;;;;;;;9.80;3.05;;;;;;;3.88;83.43;102205.03;4986764;28;20035;-73
2023/03/05 00:51:44;;;;;;;13.65;3.65;;;;;;;3.86;84.57;102205.00;4975237;28;20402;-73
2023/03/05 00:54:09;;;;;;;14.80;3.70;;;;;;;3.84;84.44;102201.47;4974370;28;20040;-73
2023/03/05 00:56:35;;;;;;;12.77;3.40;;;;;;;3.80;84.98;102196.09;4975050;28;20047;-73
2023/03/05 00:59:01;;;;;;;11.40;2.83;;;;;;;3.81;84.38;102192.63;4975818;28;20051;-73
2023/03/05 01:01:27;;;;;;;18.40;3.53;;;;;;;3.81;84.86;102190.00;4972338;28;20125;-73
2023/03/05 01:03:55;;;;;;;12.52;3.13;;;;;;;3.83;85.22;102191.84;4974837;28;20132;-73
2023/03/05 01:06:20;;;;;;;10.52;3.17;;;;;;;3.85;85.04;102195.34;4973808;28;20034;-73
2023/03/05 01:08:46;;;;;;;14.30;3.47;;;;;;;3.82;85.57;102195.28;4979517;28;20031;-73
2023/03/05 01:11:12;;;;;;;22.25;4.65;;;;;;;3.76;86.20;102184.66;4983451;28;20042;-73
2023/03/05 01:13:38;;;;;;;14.77;3.28;;;;;;;3.77;86.33;102177.66;4995329;28;20038;-73
2023/03/05 01:16:04;;;;;;;13.85;3.53;;;;;;;3.78;85.93;102182.03;5010604;28;20354;-73
2023/03/05 01:18:29;;;;;;;12.65;3.17;;;;;;;3.74;86.57;102175.84;4995518;28;20037;-73
2023/03/05 01:20:55;;;;;;;9.57;2.95;;;;;;;3.77;86.13;102175.03;4993848;28;20405;-73
2023/03/05 01:23:20;;;;;;;13.07;2.97;;;;;;;3.74;86.89;102173.22;4993841;28;20026;-73
2023/03/05 01:26:00;;;;;;;7.25;2.35;;;;;;;3.73;86.61;102166.19;5026584;28;20433;-73
2023/03/05 01:28:27;;;;;;;12.20;3.22;;;;;;;3.72;86.51;102166.19;5000354;28;20070;-73
2023/03/05 01:30:52;;;;;;;12.10;2.63;;;;;;;3.70;86.51;102160.88;4988928;28;20034;-74
2023/03/05 01:33:18;;;;;;;21.35;3.60;;;;;;;3.71;85.92;102160.06;4989273;28;20034;-73
2023/03/05 01:35:48;;;;;;;14.02;3.28;;;;;;;3.70;86.52;102157.38;4993089;28;20493;-73
2023/03/05 01:38:14;;;;;;;9.40;3.00;;;;;;;3.70;86.83;102153.03;4995281;28;20041;-73
2023/03/05 01:40:42;;;;;;;12.85;2.92;;;;;;;3.71;86.30;102149.56;4993363;28;20121;-73
2023/03/05 01:43:10;;;;;;;15.50;3.40;;;;;;;3.67;87.37;102148.59;4993891;28;20134;-73
2023/03/05 01:45:36;;;;;;;14.50;3.15;;;;;;;3.63;87.11;102143.22;4993467;28;20027;-74
2023/03/05 01:48:02;;;;;;;9.68;3.33;;;;;;;3.63;86.72;102141.47;4991004;28;20070;-73
2023/03/05 01:50:28;;;;;;;12.55;2.88;;;;;;;3.63;87.24;102137.97;5000041;28;20108;-73
2023/03/05 01:53:01;;;;;;;14.13;3.20;;;;;;;3.61;87.16;102126.56;5025952;28;20042;-73
2023/03/05 01:55:31;;;;;;;10.15;2.60;;;;;;;3.64;87.48;102126.66;4993448;28;20030;-73
2023/03/05 01:58:10;;;;;;;13.68;3.38;;;;;;;3.63;86.80;102124.88;4992903;28;20046;-73
2023/03/05 02:00:42;;;;;;;13.20;2.83;;;;;;;3.58;87.12;102122.13;4993355;28;20046;-73
2023/03/05 02:03:09;;;;;;;14.25;3.00;;;;;;;3.56;87.92;102117.69;4994412;28;20034;-73
2023/03/05 02:05:37;;;;;;;10.23;3.28;;;;;;;3.55;87.50;102102.84;5009420;28;20540;-73
2023/03/05 02:08:05;;;;;;;12.50;2.72;;;;;;;3.55;87.63;102113.31;4995049;28;20042;-73
2023/03/05 02:10:35;;;;;;;8.30;2.40;;;;;;;3.58;87.46;102103.78;5022902;28;20022;-73
2023/03/05 02:13:05;;;;;;;9.80;2.33;;;;;;;3.56;87.53;102097.66;4992957;28;20041;-73
2023/03/05 02:15:32;;;;;;;8.65;2.42;;;;;;;3.56;87.33;102097.66;4994261;28;20030;-73
2023/03/05 02:17:57;;;;;;;12.02;2.85;;;;;;;3.54;87.06;102088.88;5030965;28;20023;-73
2023/03/05 02:20:48;;;;;;;15.02;3.40;;;;;;;3.57;86.44;102091.56;4992647;28;20057;-73
2023/03/05 02:23:15;;;;;;;8.43;2.30;;;;;;;3.59;86.67;102092.50;5009248;28;20065;-73
2023/03/05 02:25:41;;;;;;;10.60;2.80;;;;;;;3.58;86.50;102088.06;4984463;28;20033;-73
2023/03/05 02:28:11;;;;;;;13.00;2.70;;;;;;;3.60;86.15;102093.38;4992821;28;20039;-73
2023/03/05 02:30:37;;;;;;;9.35;2.35;;;;;;;3.60;87.12;102078.53;4991737;28;20030;-73
2023/03/05 02:33:04;;;;;;;9.38;2.30;;;;;;;3.59;87.27;102081.13;5018854;28;20390;-73
2023/03/05 02:35:30;;;;;;;11.00;2.60;;;;;;;3.57;87.28;102067.09;4992752;28;20060;-73
2023/03/05 02:37:56;;;;;;;8.18;2.30;;;;;;;3.57;87.42;102067.97;4991654;28;20461;-73
2023/03/05 02:40:22;;;;;;;9.65;2.70;;;;;;;3.56;87.25;102070.53;4992551;28;20401;-73
2023/03/05 02:42:48;;;;;;;5.45;2.22;;;;;;;3.55;87.13;102066.16;4992442;28;20872;-73
2023/03/05 02:45:15;;;;;;;7.95;2.22;;;;;;;3.52;88.18;102053.00;4973058;28;20041;-74
2023/03/05 02:47:40;;;;;;;12.48;2.20;;;;;;;3.52;87.86;102058.25;4989098;28;20042;-74
2023/03/05 02:50:08;;;;;;;10.23;2.38;;;;;;;3.51;87.96;102056.44;4992215;28;20042;-74
2023/03/05 02:52:35;;;;;;;14.32;3.08;;;;;;;3.47;88.67;102049.38;4993652;28;20405;-73
2023/03/05 02:55:03;;;;;;;9.15;2.38;;;;;;;3.44;88.14;102048.44;4972853;28;20121;-74
2023/03/05 02:57:29;;;;;;;10.32;2.40;;;;;;;3.42;88.62;102046.63;5008790;28;20045;-74
2023/03/05 02:59:55;;;;;;;8.05;2.47;;;;;;;3.39;88.92;102036.97;5024553;28;20137;-74
2023/03/05 03:02:21;;;;;;;7.75;2.10;;;;;;;3.40;88.70;102041.34;4972809;28;20085;-73
2023/03/05 03:04:46;;;;;;;8.57;2.50;;;;;;;3.32;89.25;102029.78;5020656;28;20042;-73
2023/03/05 03:07:13;;;;;;;10.00;2.42;;;;;;;3.22;89.67;102033.88;4989605;28;20480;-73
2023/03/05 03:09:39;;;;;;;11.18;3.10;;;;;;;3.12;89.61;102024.00;4982234;28;20046;-73
2023/03/05 03:12:05;;;;;;;10.05;2.90;;;;;;;3.11;89.86;102030.06;5024838;28;20100;-74
2023/03/05 03:14:40;;;;;;;12.02;3.00;;;;;;;3.05;89.96;102018.56;4993184;28;20026;-82
2023/03/05 03:17:07;;;;;;;8.25;2.50;;;;;;;3.05;90.12;102011.59;5024921;28;20066;-81
2023/03/05 03:19:33;;;;;;;10.05;3.05;;;;;;;3.02;90.58;102001.06;4983358;28;20113;-82
2023/03/05 03:21:58;;;;;;;13.23;3.00;;;;;;;2.97;90.51;102000.91;5007352;28;20561;-81
2023/03/05 03:24:24;;;;;;;9.30;2.65;;;;;;;2.98;91.57;102007.03;5006878;28;20031;-82
2023/03/05 03:26:49;;;;;;;12.93;2.72;;;;;;;2.93;91.54;102014.75;4987310;28;20064;-82
2023/03/05 03:29:16;;;;;;;10.63;2.75;;;;;;;2.90;91.90;102014.66;4986643;28;20125;-82
2023/03/05 03:31:44;;;;;;;15.32;2.92;;;;;;;2.86;91.68;102012.78;4986942;28;20143;-81
2023/03/05 03:34:11;;;;;;;14.85;2.92;;;;;;;2.84;91.26;102005.75;5028217;28;20037;-81
2023/03/05 03:36:37;;;;;;;10.13;2.55;;;;;;;2.85;92.38;102003.19;4983864;28;20045;-82
2023/03/05 03:39:04;;;;;;;8.88;2.72;;;;;;;2.88;92.67;101999.78;4988505;28;20018;-82
2023/03/05 03:41:31;;;;;;;15.98;2.63;;;;;;;2.88;92.74;102002.38;4991215;28;20038;-81
2023/03/05 03:43:57;;;;;;;14.80;3.05;;;;;;;2.87;93.34;101995.34;4992565;28;20177;-81
2023/03/05 03:46:22;;;;;;;12.48;2.92;;;;;;;2.83;93.35;101993.53;4990634;28;20120;-81
2023/03/05 03:48:51;;;;;;;15.30;3.45;;;;;;;2.86;93.33;101991.00;4994454;28;20032;-81
2023/03/05 03:51:16;;;;;;;13.40;2.78;;;;;;;2.83;93.54;101986.56;4991206;28;20386;-81
2023/03/05 03:53:42;;;;;;;9.32;3.10;;;;;;;2.79;93.99;101985.59;4988481;28;20023;-81
2023/03/05 03:56:07;;;;;;;13.68;3.60;;;;;;;2.78;94.27;101983.81;5018530;28;20374;-81
2023/03/05 03:58:33;;;;;;;14.70;3.17;;;;;;;2.78;93.96;101988.16;5014049;28;20054;-81
2023/03/05 04:00:59;;;;;;;13.93;3.17;;;;;;;2.74;93.48;101976.69;5009051;28;20053;-81
2023/03/05 04:03:24;;;;;;;13.85;3.60;;;;;;;2.76;93.79;101982.00;4977207;28;20066;-81
2023/03/05 04:05:50;;;;;;;11.88;2.90;;;;;;;2.76;93.95;101985.47;4974653;28;20101;-81
2023/03/05 04:08:15;;;;;;;7.40;2.47;;;;;;;2.74;93.69;101970.59;5021856;28;20030;-81
2023/03/05 04:10:41;;;;;;;11.57;2.67;;;;;;;2.78;94.16;101975.06;4989941;28;20030;-81
2023/03/05 04:13:06;;;;;;;12.45;3.63;;;;;;;2.78;93.95;101973.34;4992650;28;20441;-81
2023/03/05 04:15:33;;;;;;;11.95;4.18;;;;;;;2.77;94.11;101963.72;5023706;28;20046;-81
2023/03/05 04:17:59;;;;;;;10.70;2.65;;;;;;;2.76;94.30;101963.69;4975284;28;20480;-81
2023/03/05 04:20:24;;;;;;;10.98;3.28;;;;;;;2.74;94.94;101966.25;4973415;28;20114;-81
2023/03/05 04:22:50;;;;;;;15.95;3.35;;;;;;;2.72;94.29;101954.88;4994329;28;20393;-81
2023/03/05 04:25:15;;;;;;;7.95;2.63;;;;;;;2.73;94.62;101954.03;4983813;28;20042;-80
2023/03/05 04:27:41;;;;;;;13.05;3.38;;;;;;;2.68;94.49;101939.94;4990964;28;20027;-81
2023/03/05 04:30:08;;;;;;;19.92;3.03;;;;;;;2.73;94.85;101946.16;5022943;28;20400;-81
2023/03/05 04:32:34;;;;;;;8.70;2.70;;;;;;;2.74;94.75;101949.66;5016854;28;20051;-81
2023/03/05 04:34:59;;;;;;;14.13;3.55;;;;;;;2.73;94.73;101940.94;4982876;28;20478;-81
2023/03/05 04:37:25;;;;;;;14.98;3.67;;;;;;;2.72;94.68;101940.88;4989597;28;20022;-81
2023/03/05 04:39:51;;;;;;;14.10;3.00;;;;;;;2.75;94.13;101944.50;4978567;28;20134;-81
2023/03/05 04:42:18;;;;;;;15.40;3.92;;;;;;;2.70;94.50;101943.47;4992457;28;20565;-81
2023/03/05 04:44:45;;;;;;;12.85;3.30;;;;;;;2.68;94.82;101937.31;4973985;28;20050;-81
2023/03/05 04:47:11;;;;;;;10.50;3.58;;;;;;;2.66;94.50;101936.38;4973032;28;20027;-81
2023/03/05 04:49:37;;;;;;;15.07;4.07;;;;;;;2.71;94.34;101944.34;4972401;28;20502;-81
2023/03/05 04:52:02;;;;;;;11.85;4.22;;;;;;;2.72;94.37;101944.41;4974078;28;20027;-81
2023/03/05 04:54:28;;;;;;;12.27;3.50;;;;;;;2.75;93.24;101947.09;4970564;28;20047;-81
2023/03/05 04:56:53;;;;;;;12.05;3.47;;;;;;;2.72;93.94;101933.94;4975057;28;20111;-81
2023/03/05 04:59:19;;;;;;;9.68;3.22;;;;;;;2.76;94.08;101929.66;4975600;28;20114;-81
2023/03/05 05:01:45;;;;;;;12.30;3.58;;;;;;;2.77;93.54;101928.84;4975381;28;20039;-81
2023/03/05 05:04:10;;;;;;;11.70;3.25;;;;;;;2.74;93.50;101918.28;4975400;28;20196;-80
2023/03/05 05:06:36;;;;;;;10.93;3.38;;;;;;;2.76;93.63;101921.81;4976060;28;20117;-80
2023/03/05 05:09:01;;;;;;;11.02;3.55;;;;;;;2.73;94.28;101924.38;4977764;28;20453;-81
2023/03/05 05:11:27;;;;;;;9.85;3.60;;;;;;;2.66;93.70;101912.84;4974838;28;20027;-81
2023/03/05 05:13:52;;;;;;;9.68;3.75;;;;;;;2.72;93.76;101920.88;4960385;28;20050;-81
2023/03/05 05:16:18;;;;;;;9.23;3.03;;;;;;;2.71;93.42;101911.22;4974682;28;20073;-81
2023/03/05 05:18:43;;;;;;;15.90;4.10;;;;;;;2.77;93.69;101910.53;4976442;28;20461;-81
2023/03/05 05:21:11;;;;;;;9.77;3.80;;;;;;;2.75;94.71;101907.88;4976583;28;20037;-81
2023/03/05 05:23:37;;;;;;;16.05;4.55;;;;;;;2.76;93.61;101907.00;4980564;28;20037;-81
2023/03/05 05:26:05;;;;;;;18.77;4.78;;;;;;;2.76;93.61;101904.41;4983687;28;20030;-81
2023/03/05 05:28:31;;;;;;;18.17;4.05;;;;;;;2.78;93.31;101907.94;4985464;28;20114;-81
2023/03/05 05:30:56;;;;;;;17.33;4.53;;;;;;;2.77;94.28;101903.56;4984181;28;20438;-81
2023/03/05 05:33:22;;;;;;;19.48;5.65;;;;;;;2.76;94.02;101907.00;4989611;28;20034;-81
2023/03/05 05:35:47;;;;;;;12.57;4.82;;;;;;;2.78;94.71;101902.72;4988367;28;20105;-81
2023/03/05 05:38:13;;;;;;;17.45;4.70;;;;;;;2.75;94.54;101897.41;5015165;28;20050;-81
2023/03/05 05:40:39;;;;;;;14.38;5.38;;;;;;;2.74;94.90;101898.22;4975209;28;20034;-81
2023/03/05 05:43:05;;;;;;;24.67;6.13;;;;;;;2.75;95.13;101907.88;4981799;28;20078;-81
2023/03/05 05:45:31;;;;;;;17.55;5.43;;;;;;;2.73;94.46;101896.47;4975252;28;20169;-81
2023/03/05 05:47:56;;;;;;;12.75;5.43;;;;;;;2.71;94.53;101895.53;4975972;28;20532;-81
2023/03/05 05:50:22;;;;;;;13.95;5.03;;;;;;;2.75;94.45;101892.19;4978925;28;20015;-81
2023/03/05 05:52:49;;;;;;;12.00;5.15;;;;;;;2.76;94.41;101893.94;4976048;28;20497;-81
2023/03/05 05:55:14;;;;;;;18.45;5.32;;;;;;;2.77;94.25;101890.50;4981564;28;20030;-81
2023/03/05 05:57:40;;;;;;;14.77;5.18;;;;;;;2.80;94.70;101892.31;4973527;28;20041;-81
2023/03/05 06:00:08;;;;;;;13.27;5.75;;;;;;;2.77;94.57;101885.25;4974009;28;20058;-81
2023/03/05 06:02:41;;;;;;;20.17;5.75;;;;;;;2.82;94.46;101894.94;4980352;28;20054;-81
2023/03/05 06:05:09;;;;;;;18.30;5.57;;;;;;;2.82;94.28;101893.22;4985849;28;20030;-81
2023/03/05 06:07:35;;;;;;;17.00;5.20;;;;;;;2.83;95.18;101889.75;4980728;28;20549;-81
2023/03/05 06:10:01;;;;;;;14.07;5.32;;;;;;;2.82;94.65;101892.31;4977820;28;20039;-81
2023/03/05 06:12:26;;;;;;;15.70;5.35;;;;;;;2.83;95.71;101895.00;4979320;28;20038;-81
2023/03/05 06:14:52;;;;;;;15.80;5.45;;;;;;;2.84;95.66;101890.63;4982484;28;20035;-81
2023/03/05 06:17:18;;;;;;;15.52;5.65;;;;;;;2.82;95.89;101877.53;4976933;28;20034;-73
2023/03/05 06:19:44;;;;;;;11.45;5.13;;;;;;;2.84;96.30;101880.16;4974469;28;20117;-73
2023/03/05 06:22:10;;;;;;;8.60;4.70;;;;;;;2.84;96.02;101875.81;4972818;28;20393;-73
2023/03/05 06:24:36;;;;;;;19.42;6.03;;;;;;;2.83;96.10;101873.19;4973737;28;20048;-73
2023/03/05 06:27:03;;;;;;;17.88;6.00;;;;;;;2.83;96.27;101870.56;4981050;28;20032;-73
2023/03/05 06:29:28;;;;;;;14.60;6.40;;;;;;;2.86;96.18;101876.75;4978468;28;20478;-73
2023/03/05 06:31:53;;;;;;;14.35;6.68;;;;;;;2.86;97.06;101878.50;4975602;28;20029;-72
2023/03/05 06:34:19;;;;;;;12.80;5.50;;;;;;;2.83;97.22;101874.06;4973782;28;20034;-73
2023/03/05 06:36:44;;;;;;;13.18;5.68;;;;;;;2.83;97.56;101870.56;4975428;28;20035;-72
2023/03/05 06:39:10;;;;;;;15.88;6.88;;;;;;;2.82;98.46;101884.47;4958125;28;20562;-72
2023/03/05 06:41:36;;;;;;;12.95;5.47;;;;;;;2.80;97.80;101869.63;4974083;28;20441;-72
2023/03/05 06:44:02;;;;;;;15.10;5.85;;;;;;;2.80;98.32;101867.03;4972801;28;20485;-73
2023/03/05 06:46:33;;;;;;;16.05;7.30;;;;;;;2.69;98.83;101865.84;4975698;28;20401;-73
2023/03/05 06:49:01;;;;;;;10.82;6.38;;;;;;;2.72;99.13;101868.56;4975617;28;20061;-73
2023/03/05 06:51:33;;;;;;;12.60;6.13;;;;;;;2.71;99.04;101872.00;4974014;28;20026;-72
2023/03/05 06:54:01;;;;;;;15.77;5.72;;;;;;;2.71;98.82;101871.13;4973729;28;20034;-73
2023/03/05 06:56:27;;;;;;;16.77;6.53;;;;;;;2.75;100.00;101873.88;4973655;28;20022;-73
2023/03/05 06:58:52;;;;;;;11.68;6.13;;;;;;;2.75;99.58;101860.78;5004746;28;20051;-73
2023/03/05 07:01:20;;;;;;;11.48;5.93;;;;;;;2.78;99.93;101862.59;4973527;28;20042;-73
2023/03/05 07:03:52;;;;;;;15.82;5.50;;;;;;;2.85;99.89;101866.28;4977457;28;20538;-72
2023/03/05 07:06:19;;;;;;;17.90;6.38;;;;;;;2.86;99.50;101875.88;4973667;28;20039;-72
2023/03/05 07:08:45;;;;;;;13.63;6.13;;;;;;;2.88;99.85;101868.97;4972309;28;20037;-73
2023/03/05 07:11:12;;;;;;;14.68;5.97;;;;;;;2.88;100.00;101876.81;4975016;28;20493;-72
2023/03/05 07:13:38;;;;;;;13.35;6.22;;;;;;;2.89;99.55;101866.34;4973346;28;20086;-73
2023/03/05 07:16:09;;;;;;;13.85;5.75;;;;;;;2.92;100.00;101868.19;4972166;28;20031;-73
2023/03/05 07:18:35;;;;;;;13.52;6.15;;;;;;;2.96;100.00;101875.25;5009680;28;20045;-73
2023/03/05 07:21:05;;;;;;;17.65;6.05;;;;;;;2.96;100.00;101859.56;4972940;28;20381;-73
2023/03/05 07:23:31;;;;;;;13.93;5.85;;;;;;;3.00;100.00;101864.91;4957779;28;20320;-72
2023/03/05 07:26:00;;;;;;;16.50;6.35;;;;;;;3.04;100.00;101862.38;4975475;28;20062;-72
2023/03/05 07:28:26;;;;;;;12.60;6.25;;;;;;;3.06;100.00;101858.94;4988438;28;20057;-72
2023/03/05 07:31:10;;;;;;;12.10;5.50;;;;;;;3.07;100.00;101857.25;4974815;28;20462;-72
2023/03/05 07:33:36;;;;;;;17.10;5.55;;;;;;;3.07;100.00;101855.50;4982298;28;20453;-72
2023/03/05 07:36:03;;;;;;;9.15;5.47;;;;;;;3.13;100.00;101855.63;4971872;28;20078;-72
2023/03/05 07:38:30;;;;;;;13.07;5.97;;;;;;;3.14;100.00;101848.66;4957341;28;20464;-72
2023/03/05 07:40:56;;;;;;;10.82;5.50;;;;;;;3.17;100.00;101851.38;4973926;28;20402;-72
2023/03/05 07:43:21;;;;;;;12.10;5.80;;;;;;;3.23;100.00;101856.75;4971034;28;20074;-72
2023/03/05 07:45:48;;;;;;;11.68;5.45;;;;;;;3.24;100.00;101853.31;4987698;28;20062;-72
2023/03/05 07:48:17;;;;;;;11.77;5.65;;;;;;;3.26;100.00;101851.59;4973929;28;20049;-72
2023/03/05 07:50:43;;;;;;;11.43;5.82;;;;;;;3.28;100.00;101842.03;4973855;28;20093;-73
2023/03/05 07:53:09;;;;;;;12.23;5.18;;;;;;;3.37;100.00;101857.09;4973695;28;20026;-72
2023/03/05 07:55:40;;;;;;;14.43;5.57;;;;;;;3.37;100.00;101850.13;4976711;28;20451;-72
2023/03/05 07:58:05;;;;;;;10.90;4.72;;;;;;;3.38;100.00;101851.88;4976871;28;20120;-72
2023/03/05 08:00:31;;;;;;;11.80;5.32;;;;;;;3.36;100.00;101843.13;4974548;28;20126;-72
2023/03/05 08:02:56;;;;;;;7.38;4.50;;;;;;;3.34;100.00;101850.06;5004455;28;20035;-72
2023/03/05 08:05:22;;;;;;;10.63;4.70;;;;;;;3.32;100.00;101843.91;4982125;28;20066;-72
2023/03/05 08:07:47;;;;;;;11.40;4.40;;;;;;;3.35;100.00;101846.56;5009314;28;20042;-72
2023/03/05 08:10:13;;;;;;;10.45;4.80;;;;;;;3.35;100.00;101840.47;4983621;28;20377;-72
2023/03/05 08:12:38;;;;;;;7.32;4.22;;;;;;;3.41;100.00;101845.81;4971890;28;20043;-72
2023/03/05 08:15:04;;;;;;;6.63;4.07;;;;;;;3.47;100.00;101840.75;5014742;28;20371;-73
2023/03/05 08:17:30;;;;;;;8.85;4.32;;;;;;;3.51;100.00;101834.75;4975909;28;20172;-72
2023/03/05 08:19:58;;;;;;;9.60;4.40;;;;;;;3.52;100.00;101827.78;4982015;28;20023;-72
2023/03/05 08:22:24;;;;;;;11.10;3.90;;;;;;;3.50;100.00;101830.34;4979769;28;20046;-72
2023/03/05 08:24:50;;;;;;;11.82;4.00;;;;;;;3.51;100.00;101829.50;4976103;28;20031;-72
2023/03/05 08:27:16;;;;;;;8.85;3.88;;;;;;;3.54;99.54;101820.84;4956245;28;20100;-73
2023/03/05 08:29:42;;;;;;;7.88;3.67;;;;;;;3.63;99.58;101827.13;4974087;28;20030;-73
2023/03/05 08:32:07;;;;;;;8.20;3.83;;;;;;;3.71;99.93;101824.72;5007783;28;20370;-73
2023/03/05 08:34:33;;;;;;;9.32;3.50;;;;;;;3.77;98.83;101813.47;4980217;28;20030;-74
2023/03/05 08:36:58;;;;;;;7.40;3.17;;;;;;;3.78;98.61;101808.25;4975166;28;20039;-74
2023/03/05 08:39:24;;;;;;;5.45;3.13;;;;;;;3.80;97.43;101808.28;4993240;28;20023;-74
2023/03/05 08:41:50;;;;;;;5.20;3.00;;;;;;;3.83;97.87;101814.50;4976106;28;20041;-74
2023/03/05 08:44:15;;;;;;;5.32;3.08;;;;;;;3.86;96.60;101817.19;4974752;28;20137;-74
2023/03/05 08:46:41;;;;;;;15.02;3.25;;;;;;;3.91;97.12;101804.19;5007405;28;20046;-74
2023/03/05 08:49:07;;;;;;;10.10;3.60;;;;;;;4.01;96.91;101807.88;4979303;28;20018;-74
2023/03/05 08:51:33;;;;;;;7.25;3.17;;;;;;;4.03;96.00;101801.81;4980162;28;20383;-73
2023/03/05 08:54:00;;;;;;;6.75;3.17;;;;;;;4.12;95.69;101803.72;4976935;28;20027;-72
2023/03/05 08:56:27;;;;;;;5.57;2.35;;;;;;;4.09;94.46;101795.81;4977969;28;20131;-72
2023/03/05 08:58:52;;;;;;;8.48;2.80;;;;;;;4.11;95.23;101794.09;4974188;28;20131;-73
2023/03/05 09:01:18;;;;;;;6.78;2.83;;;;;;;4.16;95.19;101794.19;4975757;28;20121;-72
2023/03/05 09:03:44;;;;;;;5.80;2.70;;;;;;;4.25;94.59;101794.34;4978295;28;20160;-72
2023/03/05 09:06:11;;;;;;;4.80;2.45;;;;;;;4.24;93.89;101780.38;4976594;28;20093;-73
2023/03/05 09:08:40;;;;;;;5.13;2.20;;;;;;;4.28;93.25;101792.69;4976482;28;20054;-74
2023/03/05 09:11:07;;;;;;;4.75;2.13;;;;;;;4.32;92.49;101791.88;4976632;28;20065;-73
2023/03/05 09:13:34;;;;;;;7.63;2.90;;;;;;;4.36;92.78;101781.47;4978611;28;20049;-72
2023/03/05 09:16:03;;;;;;;4.88;2.30;;;;;;;4.39;92.82;101785.00;4974448;28;20126;-73
2023/03/05 09:18:29;;;;;;;3.33;2.08;;;;;;;4.41;93.01;101785.94;4974179;28;20482;-73
2023/03/05 09:20:55;;;;;;;3.92;1.77;;;;;;;4.47;91.95;101786.03;4974825;28;20111;-73
2023/03/05 09:23:21;;;;;;;5.82;2.08;;;;;;;4.60;91.91;101781.00;4976647;28;20046;-73
2023/03/05 09:25:46;;;;;;;5.57;2.00;;;;;;;4.73;91.65;101776.00;4975560;28;20330;-73
2023/03/05 09:28:12;;;;;;;5.75;1.85;;;;;;;4.74;90.27;101764.63;4976570;28;20030;-73
2023/03/05 09:30:38;;;;;;;7.10;2.20;;;;;;;4.72;89.85;101766.38;4974342;28;20122;-73
2023/03/05 09:33:04;;;;;;;2.35;1.40;;;;;;;4.66;89.24;101768.88;4976469;28;20023;-73
2023/03/05 09:35:30;;;;;;;4.95;1.80;;;;;;;4.66;89.64;101768.00;4975479;28;20038;-73
2023/03/05 09:37:55;;;;;;;4.20;1.58;;;;;;;4.69;89.37;101770.69;4974603;28;20037;-73
2023/03/05 09:40:22;;;;;;;3.63;1.75;;;;;;;4.77;88.57;101766.44;4978633;28;20034;-73
2023/03/05 09:43:14;;;;;;;4.07;1.63;;;;;;;4.85;88.89;101764.84;4959354;28;20209;-73
2023/03/05 09:45:58;;;;;;;3.60;1.60;;;;;;;4.83;87.21;101757.81;5005675;28;20059;-72
2023/03/05 09:48:51;;;;;;;2.35;1.30;;;;;;;4.82;87.16;101761.28;4977254;28;20031;-73
2023/03/05 09:51:23;;;;;;;5.55;1.80;;;;;;;4.86;87.63;101752.59;4969937;28;20068;-73
2023/03/05 09:53:51;;;;;;;;;;;;;;;4.95;87.66;101750.13;4975616;28;20039;-82
2023/03/05 09:56:24;;;;;;;5.90;1.70;;;;;;;4.97;85.34;101756.28;4977468;28;20008;-83
2023/03/05 09:58:58;;;;;;;5.03;1.45;;;;;;;5.02;86.40;101749.38;4975311;28;20581;-82
2023/03/05 10:01:51;;;;;;;4.20;1.15;;;;;;;5.08;85.18;101744.19;4977319;28;20520;-81
2023/03/05 10:04:27;;;;;;;2.25;1.10;;;;;;;5.11;84.92;101746.84;4978992;28;20117;-81
2023/03/05 10:07:03;;;;;;;3.42;1.30;;;;;;;5.09;85.00;101739.81;4979484;28;20038;-82
2023/03/05 10:09:35;;;;;;;2.83;1.02;;;;;;;5.08;84.44;101743.31;4979130;28;20080;-82
2023/03/05 10:12:31;;;;;;;3.10;1.70;;;;;;;5.09;84.42;101740.69;4979794;28;20085;-82
2023/03/05 10:14:59;;;;;;;3.50;1.23;;;;;;;5.10;85.00;101731.97;4966531;28;20478;-82
2023/03/05 10:17:43;;;;;;;2.95;1.50;;;;;;;5.22;85.56;101733.91;4976053;28;20390;-82
2023/03/05 10:20:33;;;;;;;7.00;2.22;;;;;;;5.29;83.42;101732.22;4977071;28;20046;-82
2023/03/05 10:23:08;;;;;;;2.97;1.33;;;;;;;5.27;82.99;101736.59;4974545;28;20042;-82
2023/03/05 10:26:09;;;;;;;2.53;1.30;;;;;;;5.26;83.97;101729.56;4975705;28;20037;-84
2023/03/05 10:28:42;;;;;;;;;;;;;;;5.27;83.28;101732.22;4975571;28;20045;-82
2023/03/05 10:31:15;;;;;;;2.88;1.40;;;;;;;5.14;84.71;101725.00;4996341;28;19914;-82
2023/03/05 10:34:05;;;;;;;3.03;1.50;;;;;;;5.17;86.08;101728.59;4985216;28;20038;-82
2023/03/05 10:37:00;;;;;;;3.55;1.45;;;;;;;5.17;86.26;101720.72;4983980;28;20042;-81
2023/03/05 10:39:34;;;;;;;2.40;1.42;;;;;;;5.24;86.46;101720.78;4981569;28;20034;-82
2023/03/05 10:42:24;;;;;;;4.78;1.65;;;;;;;5.26;86.31;101719.94;5007082;28;20039;-82
2023/03/05 10:44:52;;;;;;;3.88;1.33;;;;;;;5.29;85.67;101716.47;5013004;28;20181;-82
2023/03/05 10:47:35;;;;;;;3.45;1.30;;;;;;;5.39;85.87;101711.38;4973064;28;20027;-82
2023/03/05 10:50:01;;;;;;;1.90;1.05;;;;;;;5.51;85.66;101707.13;5013203;28;20040;-81
2023/03/05 10:52:39;;;;;;;6.68;1.83;;;;;;;5.69;84.84;101707.38;4988919;28;20370;-81
2023/03/05 10:55:19;;;;;;;3.25;1.75;;;;;;;5.74;83.39;101700.44;4976672;28;20122;-82
2023/03/05 10:57:45;;;;;;;3.73;1.10;;;;;;;5.77;84.73;101691.69;4988663;28;20057;-81
2023/03/05 11:00:23;;;;;;;5.05;1.35;;;;;;;5.88;83.36;101692.69;4981157;28;20038;-82
2023/03/05 11:03:07;;;;;;;4.50;1.88;;;;;;;5.91;81.60;101689.22;4983608;28;20096;-81
2023/03/05 11:05:38;;;;;;;1.75;1.20;;;;;;;5.81;80.61;101677.72;4985990;28;20425;-82
2023/03/05 11:08:24;;;;;;;2.22;1.23;;;;;;;5.89;81.96;101670.81;4999211;28;20038;-82
2023/03/05 11:11:15;;;;;;;3.58;1.60;;;;;;;6.01;83.14;101676.22;4984323;28;20166;-82
2023/03/05 11:13:47;;;;;;;6.65;1.95;;;;;;;6.12;80.91;101678.09;4980440;28;20093;-82
2023/03/05 11:16:17;;;;;;;4.35;1.40;;;;;;;6.11;80.16;101666.69;4974101;28;20066;-82
2023/03/05 11:18:45;;;;;;;2.97;1.45;;;;;;;6.05;78.73;101663.09;4980408;28;20411;-82
2023/03/05 11:21:28;;;;;;;5.82;1.75;;;;;;;6.00;78.43;101652.53;4974643;28;20057;-82
2023/03/05 11:24:12;;;;;;;3.63;1.50;;;;;;;6.16;78.90;101658.84;4983695;28;20058;-82
2023/03/05 11:26:49;;;;;;;3.10;2.47;;;;;;;6.27;80.32;101646.66;4985224;28;20040;-82
2023/03/05 11:29:25;;;;;;;5.65;2.35;;;;;;;6.43;79.75;101645.94;4976120;28;20031;-82
2023/03/05 11:31:51;;;;;;;3.92;2.10;;;;;;;6.58;79.64;101646.94;5010151;28;20041;-82
2023/03/05 11:34:17;;;;;;;6.47;1.83;;;;;;;6.68;76.31;101651.38;4974468;28;20061;-82